Terminal Aerodrome Forecast
Issued by NWS Shreveport, LA

Home | Current Version | Previous Version | Text Only | Print | Product List | Glossary On
Versions: 1 2 3 4 5 6 7 8 9 10 11 12 13 14 15
737
FTUS44 KSHV 271722
TAFTYR
TAF
KTYR 271722Z 2718/2818 21008KT P6SM SCT045 SCT250
     FM272200 19008KT P6SM VCTS BKN050CB
     FM280300 17005KT P6SM SCT050 BKN130 BKN250
     FM280900 18006KT P6SM VCSH BKN035 BKN120
     FM281000 19007KT P6SM BKN050 OVC250
     FM281200 20006KT P6SM BKN040 OVC100=

USA.gov is the U.S. government's official web portal to all federal, state and local government web resources and services.